createdAt,value
2022-07-27T00:02:32.555Z,22.30
2022-07-27T00:07:37.733Z,22.30
2022-07-27T00:12:41.708Z,22.20
2022-07-27T00:17:45.099Z,22.20
2022-07-27T00:22:49.824Z,22.10
2022-07-27T00:27:53.217Z,22.10
2022-07-27T00:32:57.474Z,22.00
2022-07-27T00:38:02.191Z,22.00
2022-07-27T00:43:05.555Z,21.80
2022-07-27T00:48:09.138Z,21.70
2022-07-27T00:53:14.250Z,21.70
2022-07-27T00:58:18.392Z,21.70
2022-07-27T01:03:23.275Z,21.60
2022-07-27T01:08:35.414Z,21.60
2022-07-27T01:13:39.481Z,21.50
2022-07-27T01:18:43.362Z,21.50
2022-07-27T01:23:48.116Z,21.50
2022-07-27T01:28:51.508Z,21.50
2022-07-27T01:33:55.331Z,21.50
2022-07-27T01:39:00.332Z,21.50
2022-07-27T01:44:03.747Z,21.40
2022-07-27T01:49:07.607Z,21.40
2022-07-27T01:54:12.502Z,21.40
2022-07-27T01:59:16.854Z,21.30
2022-07-27T02:04:20.846Z,21.30
2022-07-27T02:09:25.967Z,21.30
2022-07-27T02:14:29.297Z,21.20
2022-07-27T02:19:32.672Z,21.20
2022-07-27T02:24:39.216Z,21.20
2022-07-27T02:29:42.839Z,21.10
2022-07-27T02:34:46.246Z,21.10
2022-07-27T02:39:50.982Z,21.10
2022-07-27T02:44:54.546Z,21.00
2022-07-27T02:49:58.029Z,21.00
2022-07-27T02:55:03.345Z,21.00
2022-07-27T03:00:09.246Z,20.90
2022-07-27T03:05:12.639Z,20.90
2022-07-27T03:10:17.438Z,20.90
2022-07-27T03:15:20.900Z,20.90
2022-07-27T03:20:24.450Z,20.80
2022-07-27T03:25:32.486Z,20.80
2022-07-27T03:30:36.236Z,20.80
2022-07-27T03:35:39.876Z,20.80
2022-07-27T03:40:45.478Z,20.70
2022-07-27T03:45:49.191Z,20.70
2022-07-27T03:50:53.164Z,20.70
2022-07-27T03:55:58.180Z,20.80
2022-07-27T04:01:01.665Z,20.80
2022-07-27T04:06:05.532Z,20.80
2022-07-27T04:11:10.205Z,20.80
2022-07-27T04:16:15.478Z,20.80
2022-07-27T04:21:18.925Z,20.80
2022-07-27T04:26:23.567Z,20.90
2022-07-27T04:31:27.246Z,20.90
2022-07-27T04:36:30.581Z,20.90
2022-07-27T04:41:37.219Z,21.00
2022-07-27T04:46:40.668Z,21.00
2022-07-27T04:51:45.955Z,21.00
2022-07-27T04:56:51.015Z,20.90
2022-07-27T05:01:54.500Z,20.90
2022-07-27T05:06:58.095Z,21.00
2022-07-27T05:12:03.096Z,21.00
2022-07-27T05:17:06.817Z,21.00
2022-07-27T05:22:10.546Z,21.00
2022-07-27T05:27:15.733Z,21.00
2022-07-27T05:32:19.103Z,21.10
2022-07-27T05:37:22.481Z,21.10
2022-07-27T05:42:27.371Z,21.20
2022-07-27T05:47:30.967Z,21.20
2022-07-27T05:52:36.308Z,21.30
2022-07-27T05:57:42.116Z,21.30
2022-07-27T06:02:45.768Z,21.40
2022-07-27T06:08:02.935Z,21.50
2022-07-27T06:13:09.216Z,21.60
2022-07-27T06:18:18.223Z,21.60
2022-07-27T06:23:21.637Z,21.70
2022-07-27T06:28:26.470Z,21.70
2022-07-27T06:33:30.847Z,21.80
2022-07-27T06:38:34.712Z,21.80
2022-07-27T06:43:39.642Z,21.80
2022-07-27T06:48:43.548Z,21.90
2022-07-27T06:53:53.214Z,21.90
2022-07-27T06:59:00.811Z,22.00
2022-07-27T07:04:04.646Z,22.10
2022-07-27T07:09:08.790Z,22.10
2022-07-27T07:14:14.936Z,22.10
2022-07-27T07:19:18.751Z,22.10
2022-07-27T07:24:22.483Z,22.20
2022-07-27T07:29:27.850Z,22.20
2022-07-27T07:34:31.251Z,22.30
2022-07-27T07:39:34.962Z,22.30
2022-07-27T07:44:40.062Z,22.40
2022-07-27T07:49:43.781Z,22.40
2022-07-27T07:54:47.639Z,22.50
2022-07-27T07:59:52.404Z,22.60
2022-07-27T08:04:55.809Z,22.60
2022-07-27T08:09:59.397Z,22.70
2022-07-27T08:15:04.201Z,22.60
2022-07-27T08:20:10.646Z,22.70
2022-07-27T08:25:14.427Z,22.60
2022-07-27T08:30:19.126Z,22.60
2022-07-27T08:35:23.752Z,22.60
2022-07-27T08:40:45.513Z,22.70
2022-07-27T08:45:56.259Z,22.70
2022-07-27T08:50:59.667Z,22.70
2022-07-27T08:56:03.311Z,22.80
2022-07-27T09:01:08.081Z,22.90
2022-07-27T09:06:11.499Z,23.00
2022-07-27T09:11:16.184Z,23.00
2022-07-27T09:17:02.898Z,23.00
2022-07-27T09:21:54.584Z,23.00
2022-07-27T09:27:04.178Z,23.00
2022-07-27T09:32:16.836Z,23.10
2022-07-27T09:37:25.659Z,23.10
2022-07-27T09:43:05.723Z,23.10
2022-07-27T09:47:54.385Z,23.20
2022-07-27T09:53:41.254Z,23.20
2022-07-27T09:58:48.004Z,23.10
2022-07-27T10:03:54.902Z,23.20
2022-07-27T10:09:00.663Z,23.20
2022-07-27T10:14:04.456Z,23.20
2022-07-27T10:19:15.060Z,23.30
2022-07-27T10:24:27.033Z,23.40
2022-07-27T10:29:30.567Z,23.50
2022-07-27T10:34:37.562Z,23.50
2022-07-27T10:39:43.196Z,23.60
2022-07-27T10:45:07.397Z,23.70
2022-07-27T10:50:48.039Z,23.80
2022-07-27T10:55:52.600Z,23.90
2022-07-27T11:01:03.973Z,24.00
2022-07-27T11:11:34.917Z,24.10
2022-07-27T11:16:54.462Z,24.20
2022-07-27T11:22:04.558Z,24.30
2022-07-27T11:27:16.288Z,24.40
2022-07-27T11:32:22.353Z,24.50
2022-07-27T11:37:27.309Z,24.60
2022-07-27T11:42:39.083Z,24.70
2022-07-27T11:47:42.715Z,24.80
2022-07-27T11:53:01.285Z,24.80
2022-07-27T11:58:05.578Z,24.70
2022-07-27T12:03:10.047Z,24.70
2022-07-27T12:08:15.388Z,24.60
2022-07-27T12:13:20.307Z,24.60
2022-07-27T12:18:23.714Z,24.60
2022-07-27T12:23:31.800Z,24.50
2022-07-27T12:28:35.479Z,24.40
2022-07-27T12:33:39.241Z,24.40
2022-07-27T12:38:46.481Z,24.30
2022-07-27T12:44:05.630Z,24.30
2022-07-27T12:49:17.285Z,24.20
2022-07-27T12:54:22.413Z,24.10
2022-07-27T12:59:25.817Z,24.00
2022-07-27T13:04:29.190Z,23.90
2022-07-27T13:10:01.894Z,23.70
2022-07-27T13:14:59.048Z,23.60
2022-07-27T13:20:02.439Z,23.60
2022-07-27T13:25:16.562Z,23.70
2022-07-27T13:30:21.173Z,23.70
2022-07-27T13:35:24.582Z,23.80
2022-07-27T13:40:29.453Z,23.90
2022-07-27T13:45:43.033Z,23.80
2022-07-27T13:50:47.201Z,23.80
2022-07-27T13:55:52.289Z,23.80
2022-07-27T14:00:55.856Z,23.80
2022-07-27T14:05:59.292Z,23.80
2022-07-27T14:11:04.421Z,23.80
2022-07-27T14:16:08.905Z,23.70
2022-07-27T14:21:12.641Z,23.60
2022-07-27T14:26:17.739Z,23.50
2022-07-27T14:31:22.275Z,23.30
2022-07-27T14:36:25.686Z,23.20
2022-07-27T14:41:31.396Z,23.10
2022-07-27T14:46:34.829Z,22.90
2022-07-27T14:51:39.493Z,22.80
2022-07-27T14:56:44.552Z,22.70
2022-07-27T15:01:48.094Z,22.60
2022-07-27T15:06:51.884Z,22.60
2022-07-27T15:11:57.169Z,22.50
2022-07-27T15:17:01.110Z,22.40
2022-07-27T15:22:04.713Z,22.30
2022-07-27T15:27:09.587Z,22.30
2022-07-27T15:32:13.764Z,22.20
2022-07-27T15:37:17.135Z,22.10
2022-07-27T15:42:21.936Z,22.00
2022-07-27T15:47:25.605Z,21.90
2022-07-27T15:52:28.990Z,22.00
2022-07-27T15:57:34.071Z,21.90
2022-07-27T16:02:37.743Z,21.80
2022-07-27T16:07:41.768Z,21.80
2022-07-27T16:12:46.732Z,21.80
2022-07-27T16:17:50.142Z,21.80
2022-07-27T16:22:55.968Z,21.90
2022-07-27T16:28:00.996Z,21.90
2022-07-27T16:33:04.470Z,22.00
2022-07-27T16:38:07.821Z,22.00
2022-07-27T16:43:13.106Z,22.00
2022-07-27T16:48:17.109Z,22.10
2022-07-27T16:53:21.035Z,22.40
2022-07-27T16:58:26.846Z,23.00
2022-07-27T17:03:30.759Z,23.70
2022-07-27T17:08:34.651Z,24.40
2022-07-27T17:13:40.275Z,24.60
2022-07-27T17:18:50.072Z,24.60
2022-07-27T17:23:53.664Z,24.60
2022-07-27T17:28:58.472Z,24.50
2022-07-27T17:34:02.913Z,24.20
2022-07-27T17:39:06.603Z,24.00
2022-07-27T17:44:12.038Z,23.90
2022-07-27T17:49:15.945Z,23.70
2022-07-27T17:54:19.906Z,23.60
2022-07-27T17:59:37.450Z,23.50
2022-07-27T18:04:41.622Z,23.40
2022-07-27T18:09:44.984Z,23.20
2022-07-27T18:15:08.033Z,23.20
2022-07-27T18:20:11.905Z,23.10
2022-07-27T18:25:15.555Z,22.90
2022-07-27T18:30:20.697Z,22.80
2022-07-27T18:35:24.222Z,22.70
2022-07-27T18:40:27.931Z,22.50
2022-07-27T18:45:34.621Z,22.40
2022-07-27T18:50:39.828Z,22.30
2022-07-27T18:55:43.401Z,22.20
2022-07-27T19:00:48.437Z,22.10
2022-07-27T19:05:52.907Z,22.00
2022-07-27T19:10:56.796Z,21.90
2022-07-27T19:16:01.607Z,21.90
2022-07-27T19:21:05.495Z,21.80
2022-07-27T19:26:10.183Z,21.70
2022-07-27T19:31:22.397Z,21.70
2022-07-27T19:36:28.058Z,21.60
2022-07-27T19:41:31.705Z,21.50
2022-07-27T19:46:36.685Z,21.50
2022-07-27T19:51:40.237Z,21.50
2022-07-27T19:56:43.807Z,21.40
2022-07-27T20:01:48.964Z,21.30
2022-07-27T20:06:52.462Z,21.30
2022-07-27T20:12:00.245Z,21.20
2022-07-27T20:17:06.114Z,21.20
2022-07-27T20:22:09.968Z,21.10
2022-07-27T20:27:13.616Z,21.00
2022-07-27T20:32:18.491Z,20.90
2022-07-27T20:37:21.880Z,20.90
2022-07-27T20:42:25.400Z,20.80
2022-07-27T20:47:34.541Z,20.70
2022-07-27T20:52:38.571Z,20.60
2022-07-27T20:57:42.307Z,20.50
2022-07-27T21:02:48.452Z,20.50
2022-07-27T21:07:51.915Z,20.40
2022-07-27T21:12:55.734Z,20.40
2022-07-27T21:18:00.544Z,20.30
2022-07-27T21:23:21.749Z,20.30
2022-07-27T21:28:25.473Z,20.20
2022-07-27T21:33:30.139Z,20.20
2022-07-27T21:38:33.583Z,20.20
2022-07-27T21:43:36.884Z,20.10
2022-07-27T21:48:42.115Z,20.10
2022-07-27T21:53:45.655Z,20.10
2022-07-27T21:58:49.433Z,20.10
2022-07-27T22:03:54.293Z,20.00
2022-07-27T22:08:57.707Z,19.90
2022-07-27T22:14:01.519Z,19.90
2022-07-27T22:19:06.320Z,19.90
2022-07-27T22:24:10.122Z,19.80
2022-07-27T22:29:13.624Z,19.60
2022-07-27T22:34:18.604Z,19.60
2022-07-27T22:39:21.921Z,19.50
2022-07-27T22:44:25.291Z,19.40
2022-07-27T22:49:29.989Z,19.30
2022-07-27T22:54:34.471Z,19.20
2022-07-27T22:59:38.497Z,19.20
2022-07-27T23:04:43.196Z,19.10
2022-07-27T23:09:46.536Z,19.10
2022-07-27T23:14:50.513Z,19.10
2022-07-27T23:19:55.227Z,19.00
2022-07-27T23:24:58.613Z,19.00
2022-07-27T23:30:02.008Z,19.00
2022-07-27T23:35:07.559Z,18.90
2022-07-27T23:40:12.210Z,18.90
2022-07-27T23:45:15.569Z,18.80
2022-07-27T23:50:20.312Z,18.80
2022-07-27T23:55:23.698Z,18.80
